createdAt,value
2019-03-29T00:02:07.668Z,29.90
2019-03-29T00:04:47.042Z,29.80
2019-03-29T00:07:38.976Z,30.00
2019-03-29T00:10:07.404Z,30.20
2019-03-29T00:12:46.522Z,30.40
2019-03-29T00:15:24.987Z,30.30
2019-03-29T00:18:04.548Z,30.40
2019-03-29T00:20:43.039Z,30.50
2019-03-29T00:23:23.067Z,30.50
2019-03-29T00:26:02.961Z,30.30
2019-03-29T00:28:42.212Z,30.40
2019-03-29T00:31:21.761Z,30.50
2019-03-29T00:34:01.174Z,30.70
2019-03-29T00:36:39.903Z,30.50
2019-03-29T00:39:20.383Z,30.60
2019-03-29T00:41:58.335Z,30.60
2019-03-29T00:44:39.456Z,30.50
2019-03-29T00:47:18.192Z,30.40
2019-03-29T00:49:57.783Z,30.50
2019-03-29T00:52:36.580Z,30.50
2019-03-29T00:55:15.803Z,30.50
2019-03-29T00:57:54.869Z,30.50
2019-03-29T01:00:33.954Z,30.70
2019-03-29T01:03:13.119Z,30.80
2019-03-29T01:05:52.781Z,30.70
2019-03-29T01:08:31.178Z,30.40
2019-03-29T01:11:10.513Z,30.30
2019-03-29T01:13:49.025Z,30.40
2019-03-29T01:16:28.983Z,30.60
2019-03-29T01:19:07.911Z,30.40
2019-03-29T01:21:46.265Z,30.40
2019-03-29T01:24:24.301Z,30.60
2019-03-29T01:27:03.334Z,31.00
2019-03-29T01:29:41.981Z,31.10
2019-03-29T01:32:20.752Z,31.10
2019-03-29T01:35:00.043Z,31.40
2019-03-29T01:37:39.904Z,31.70
2019-03-29T01:40:17.986Z,31.80
2019-03-29T01:42:58.008Z,32.10
2019-03-29T01:45:37.069Z,32.20
2019-03-29T01:48:16.408Z,32.20
2019-03-29T01:50:55.081Z,32.20
2019-03-29T01:53:34.391Z,32.00
2019-03-29T01:56:13.120Z,32.10
2019-03-29T01:58:51.866Z,32.00
2019-03-29T02:01:30.360Z,31.90
2019-03-29T02:04:09.004Z,31.80
2019-03-29T02:06:47.382Z,32.00
2019-03-29T02:09:27.076Z,31.90
2019-03-29T02:12:07.000Z,31.80
2019-03-29T02:14:47.192Z,31.80
2019-03-29T02:17:26.258Z,32.10
2019-03-29T02:20:05.713Z,32.40
2019-03-29T02:22:44.701Z,32.60
2019-03-29T02:25:23.384Z,32.70
2019-03-29T02:28:01.693Z,33.10
2019-03-29T02:30:40.728Z,33.30
2019-03-29T02:33:20.588Z,33.20
2019-03-29T02:35:59.873Z,32.80
2019-03-29T02:38:54.249Z,33.00
2019-03-29T02:41:19.655Z,33.40
2019-03-29T02:43:58.200Z,33.40
2019-03-29T02:46:38.948Z,33.30
2019-03-29T02:49:17.868Z,33.30
2019-03-29T02:51:56.806Z,33.50
2019-03-29T02:54:36.554Z,33.30
2019-03-29T02:57:15.626Z,32.80
2019-03-29T02:59:54.509Z,32.40
2019-03-29T03:02:33.693Z,32.40
2019-03-29T03:05:12.896Z,32.80
2019-03-29T03:07:51.922Z,33.30
2019-03-29T03:10:30.669Z,33.70
2019-03-29T03:13:10.331Z,33.20
2019-03-29T03:15:50.055Z,33.60
2019-03-29T03:18:29.788Z,33.30
2019-03-29T03:21:08.689Z,33.20
2019-03-29T03:23:47.989Z,33.10
2019-03-29T03:26:26.939Z,32.80
2019-03-29T03:29:05.374Z,32.70
2019-03-29T03:31:44.236Z,33.10
2019-03-29T03:34:24.595Z,33.20
2019-03-29T03:37:03.469Z,33.00
2019-03-29T03:39:42.159Z,33.40
2019-03-29T03:42:21.383Z,33.20
2019-03-29T03:44:59.669Z,33.30
2019-03-29T03:47:39.432Z,33.40
2019-03-29T03:50:37.190Z,33.10
2019-03-29T03:53:15.656Z,32.80
2019-03-29T03:55:57.161Z,33.30
2019-03-29T03:58:36.651Z,33.60
2019-03-29T04:01:15.558Z,33.90
2019-03-29T04:03:54.115Z,33.70
2019-03-29T04:06:33.324Z,33.70
2019-03-29T04:09:12.593Z,33.70
2019-03-29T04:11:51.473Z,33.30
2019-03-29T04:14:29.917Z,33.00
2019-03-29T04:17:10.052Z,33.10
2019-03-29T04:19:48.830Z,33.40
2019-03-29T04:22:28.605Z,33.30
2019-03-29T04:25:07.094Z,33.30
2019-03-29T04:27:46.446Z,33.50
2019-03-29T04:30:25.008Z,33.60
2019-03-29T04:33:03.841Z,33.50
2019-03-29T04:35:43.170Z,33.90
2019-03-29T04:38:23.168Z,34.30
2019-03-29T04:41:01.797Z,34.60
2019-03-29T04:43:41.627Z,34.70
2019-03-29T04:46:20.791Z,34.30
2019-03-29T04:49:01.007Z,34.10
2019-03-29T04:51:39.873Z,34.10
2019-03-29T04:54:20.147Z,34.00
2019-03-29T04:56:58.875Z,34.10
2019-03-29T04:59:38.801Z,35.00
2019-03-29T05:02:17.459Z,35.00
2019-03-29T05:04:56.076Z,34.60
2019-03-29T05:07:36.900Z,35.30
2019-03-29T05:10:21.101Z,35.30
2019-03-29T05:12:55.304Z,35.20
2019-03-29T05:15:34.284Z,35.30
2019-03-29T05:18:12.689Z,35.20
2019-03-29T05:20:53.290Z,35.30
2019-03-29T05:23:31.884Z,34.90
2019-03-29T05:26:12.281Z,34.90
2019-03-29T05:28:51.683Z,35.20
2019-03-29T05:31:30.901Z,35.60
2019-03-29T05:34:09.593Z,35.40
2019-03-29T05:36:48.298Z,35.60
2019-03-29T05:39:26.899Z,35.20
2019-03-29T05:42:06.505Z,34.80
2019-03-29T05:44:45.341Z,35.00
2019-03-29T05:47:24.492Z,35.30
2019-03-29T05:50:03.366Z,34.70
2019-03-29T05:52:43.713Z,34.40
2019-03-29T05:55:32.045Z,34.60
2019-03-29T05:58:03.504Z,35.50
2019-03-29T06:00:41.969Z,35.70
2019-03-29T06:03:21.471Z,36.30
2019-03-29T06:06:00.196Z,35.70
2019-03-29T06:08:38.712Z,34.80
2019-03-29T06:11:17.259Z,34.70
2019-03-29T06:13:58.738Z,34.60
2019-03-29T06:16:39.900Z,34.80
2019-03-29T06:19:25.180Z,34.20
2019-03-29T06:35:45.550Z,33.10
2019-03-29T06:38:26.431Z,33.80
2019-03-29T06:41:05.625Z,33.30
2019-03-29T06:43:44.152Z,33.00
2019-03-29T06:46:24.079Z,33.50
2019-03-29T06:49:02.607Z,33.80
2019-03-29T06:51:41.217Z,33.50
2019-03-29T06:54:20.125Z,33.60
2019-03-29T06:56:59.458Z,33.80
2019-03-29T06:59:38.428Z,33.80
2019-03-29T07:02:17.216Z,33.70
2019-03-29T07:04:55.444Z,33.30
2019-03-29T07:07:34.528Z,33.50
2019-03-29T07:10:13.931Z,33.50
2019-03-29T07:12:52.097Z,33.50
2019-03-29T07:15:30.471Z,33.20
2019-03-29T07:18:10.138Z,33.00
2019-03-29T07:20:48.236Z,33.00
2019-03-29T07:23:26.872Z,32.50
2019-03-29T07:26:05.690Z,32.50
2019-03-29T07:28:45.495Z,32.70
2019-03-29T07:31:24.265Z,32.90
2019-03-29T07:34:03.287Z,32.80
2019-03-29T07:36:41.915Z,32.80
2019-03-29T07:39:22.434Z,32.80
2019-03-29T07:42:02.150Z,33.00
2019-03-29T07:44:40.940Z,33.10
2019-03-29T07:47:19.623Z,32.50
2019-03-29T07:49:59.672Z,32.80
2019-03-29T07:52:38.809Z,33.10
2019-03-29T07:55:18.158Z,33.10
2019-03-29T07:57:56.973Z,32.90
2019-03-29T08:00:36.977Z,32.80
2019-03-29T08:03:15.874Z,32.70
2019-03-29T08:05:55.021Z,33.00
2019-03-29T08:08:34.404Z,33.00
2019-03-29T08:11:26.005Z,32.90
2019-03-29T08:14:06.744Z,32.90
2019-03-29T08:17:02.922Z,33.20
2019-03-29T08:19:41.325Z,33.20
2019-03-29T08:22:20.872Z,33.30
2019-03-29T08:24:59.557Z,33.50
2019-03-29T08:27:38.614Z,33.50
2019-03-29T08:30:16.915Z,33.10
2019-03-29T08:32:56.364Z,33.40
2019-03-29T08:35:34.925Z,33.50
2019-03-29T08:38:14.224Z,33.30
2019-03-29T08:40:53.370Z,32.90
2019-03-29T08:43:34.535Z,33.30
2019-03-29T08:46:13.390Z,33.10
2019-03-29T08:48:52.492Z,32.80
2019-03-29T08:51:31.072Z,32.70
2019-03-29T08:54:10.436Z,33.00
2019-03-29T08:56:49.098Z,33.30
2019-03-29T08:59:29.027Z,33.30
2019-03-29T09:02:08.617Z,33.00
2019-03-29T09:04:48.514Z,33.10
2019-03-29T09:07:28.109Z,33.50
2019-03-29T09:10:07.347Z,33.50
2019-03-29T09:12:45.949Z,33.30
2019-03-29T09:15:26.582Z,33.30
2019-03-29T09:18:06.946Z,33.30
2019-03-29T09:20:45.907Z,33.30
2019-03-29T09:23:24.566Z,32.90
2019-03-29T09:26:04.889Z,33.10
2019-03-29T09:28:43.559Z,32.80
2019-03-29T09:31:23.627Z,33.10
2019-03-29T09:34:01.994Z,33.20
2019-03-29T09:36:41.228Z,33.00
2019-03-29T09:39:19.449Z,33.10
2019-03-29T09:41:59.333Z,33.10
2019-03-29T09:44:38.624Z,33.10
2019-03-29T09:47:17.755Z,32.80
2019-03-29T09:49:57.158Z,32.80
2019-03-29T09:52:36.383Z,33.00
2019-03-29T09:55:15.109Z,32.80
2019-03-29T09:57:54.105Z,32.40
2019-03-29T10:00:32.714Z,32.40
2019-03-29T10:03:11.914Z,32.50
2019-03-29T10:05:50.768Z,32.50
2019-03-29T10:08:30.597Z,32.70
2019-03-29T10:11:10.427Z,32.90
2019-03-29T10:13:50.138Z,32.90
2019-03-29T10:16:28.875Z,32.70
2019-03-29T10:19:09.353Z,32.50
2019-03-29T10:21:48.505Z,32.40
2019-03-29T10:24:27.860Z,32.30
2019-03-29T10:27:06.178Z,32.40
2019-03-29T10:29:45.369Z,32.40
2019-03-29T10:32:24.045Z,32.20
2019-03-29T10:35:02.672Z,32.10
2019-03-29T10:37:41.275Z,32.30
2019-03-29T10:40:21.803Z,32.10
2019-03-29T10:43:00.959Z,32.00
2019-03-29T10:45:40.550Z,32.00
2019-03-29T10:48:19.422Z,32.10
2019-03-29T10:50:59.349Z,31.90
2019-03-29T10:53:39.093Z,32.10
2019-03-29T10:56:17.778Z,31.90
2019-03-29T10:58:56.535Z,31.90
2019-03-29T11:01:35.487Z,31.90
2019-03-29T11:04:14.380Z,31.70
2019-03-29T11:06:53.334Z,31.50
2019-03-29T11:09:32.084Z,31.50
2019-03-29T11:12:11.273Z,31.50
2019-03-29T11:14:50.011Z,31.40
2019-03-29T11:17:28.719Z,31.40
2019-03-29T11:20:07.464Z,31.30
2019-03-29T11:22:46.906Z,31.30
2019-03-29T11:25:26.405Z,31.30
2019-03-29T11:28:05.632Z,31.20
2019-03-29T11:30:44.107Z,31.30
2019-03-29T11:33:24.003Z,31.20
2019-03-29T11:36:02.773Z,31.10
2019-03-29T11:38:41.939Z,31.20
2019-03-29T11:41:20.559Z,31.10
2019-03-29T11:44:00.115Z,31.10
2019-03-29T11:46:38.585Z,31.20
2019-03-29T11:49:17.782Z,31.30
2019-03-29T11:51:56.651Z,31.30
2019-03-29T11:54:36.480Z,31.10
2019-03-29T11:57:15.920Z,31.10
2019-03-29T11:59:55.464Z,31.30
2019-03-29T12:02:34.530Z,31.00
2019-03-29T12:05:14.095Z,30.90
2019-03-29T12:07:52.789Z,30.80
2019-03-29T12:10:31.846Z,31.10
2019-03-29T12:13:11.265Z,31.20
2019-03-29T12:15:50.087Z,31.20
2019-03-29T12:18:28.355Z,31.10
2019-03-29T12:21:07.234Z,31.00
2019-03-29T12:23:46.074Z,31.20
2019-03-29T12:26:25.435Z,31.20
2019-03-29T12:29:04.931Z,31.00
2019-03-29T12:31:43.551Z,31.10
2019-03-29T12:34:21.929Z,31.10
2019-03-29T12:37:01.204Z,30.90
2019-03-29T12:39:39.998Z,30.90
2019-03-29T12:42:19.925Z,30.80
2019-03-29T12:44:59.248Z,30.70
2019-03-29T12:47:38.735Z,30.80
2019-03-29T12:50:17.696Z,30.70
2019-03-29T12:52:56.707Z,30.60
2019-03-29T12:55:34.936Z,30.70
2019-03-29T12:58:13.899Z,30.70
2019-03-29T13:00:53.696Z,30.60
2019-03-29T13:03:32.708Z,30.60
2019-03-29T13:06:12.729Z,30.50
2019-03-29T13:08:52.675Z,30.50
2019-03-29T13:11:31.535Z,30.50
2019-03-29T13:14:10.873Z,30.40
2019-03-29T13:16:49.525Z,30.40
2019-03-29T13:19:28.774Z,30.50
2019-03-29T13:22:09.227Z,30.40
2019-03-29T13:24:49.570Z,30.70
2019-03-29T13:27:28.603Z,31.00
2019-03-29T13:30:08.219Z,30.90
2019-03-29T13:32:47.722Z,30.80
2019-03-29T13:35:26.716Z,30.60
2019-03-29T13:38:05.423Z,30.50
2019-03-29T13:40:44.991Z,30.60
2019-03-29T13:43:23.956Z,30.70
2019-03-29T13:46:03.083Z,30.50
2019-03-29T13:48:41.888Z,30.50
2019-03-29T13:51:21.088Z,30.40
2019-03-29T13:53:59.550Z,30.70
2019-03-29T13:56:38.812Z,30.60
2019-03-29T13:59:18.146Z,30.70
2019-03-29T14:01:57.176Z,30.80
2019-03-29T14:04:36.542Z,30.70
2019-03-29T14:07:15.568Z,30.50
2019-03-29T14:09:54.435Z,30.50
2019-03-29T14:12:34.628Z,30.70
2019-03-29T14:15:14.125Z,30.60
2019-03-29T14:17:52.525Z,30.60
2019-03-29T14:20:37.088Z,30.50
2019-03-29T14:23:16.424Z,30.60
2019-03-29T14:25:54.728Z,30.60
2019-03-29T14:28:33.552Z,30.60
2019-03-29T14:31:12.232Z,30.90
2019-03-29T14:33:52.823Z,30.70
2019-03-29T14:36:32.073Z,30.80
2019-03-29T14:39:11.865Z,30.90
2019-03-29T14:41:50.751Z,30.90
2019-03-29T14:44:30.299Z,30.70
2019-03-29T14:47:09.066Z,30.50
2019-03-29T14:49:47.620Z,30.30
2019-03-29T14:52:26.256Z,30.40
2019-03-29T14:55:05.453Z,30.60
2019-03-29T14:57:44.038Z,30.40
2019-03-29T15:00:27.508Z,30.30
2019-03-29T15:03:06.134Z,30.20
2019-03-29T15:05:45.553Z,30.40
2019-03-29T15:08:25.047Z,30.30
2019-03-29T15:11:05.140Z,30.00
2019-03-29T15:13:43.886Z,30.00
2019-03-29T15:16:22.876Z,30.30
2019-03-29T15:19:01.762Z,30.20
2019-03-29T15:21:40.207Z,30.10
2019-03-29T15:24:18.803Z,30.10
2019-03-29T15:26:57.956Z,30.30
2019-03-29T15:29:36.628Z,30.30
2019-03-29T15:32:15.628Z,30.30
2019-03-29T15:34:55.420Z,30.20
2019-03-29T15:37:35.421Z,30.20
2019-03-29T15:40:16.171Z,30.20
2019-03-29T15:42:55.275Z,30.20
2019-03-29T15:45:34.030Z,30.30
2019-03-29T15:48:13.694Z,30.40
2019-03-29T15:50:51.948Z,30.30
2019-03-29T15:53:30.523Z,30.20
2019-03-29T15:56:09.412Z,30.10
2019-03-29T15:58:49.259Z,30.40
2019-03-29T16:01:27.954Z,30.40
2019-03-29T16:04:07.161Z,30.30
2019-03-29T16:06:46.186Z,30.10
2019-03-29T16:09:25.524Z,30.30
2019-03-29T16:12:05.034Z,30.50
2019-03-29T16:14:43.761Z,30.40
2019-03-29T16:17:22.597Z,30.00
2019-03-29T16:20:02.246Z,30.10
2019-03-29T16:22:41.168Z,30.40
2019-03-29T16:25:19.590Z,30.50
2019-03-29T16:27:59.336Z,30.00
2019-03-29T16:30:39.032Z,30.00
2019-03-29T16:33:17.713Z,30.20
2019-03-29T16:35:56.778Z,30.20
2019-03-29T16:38:36.920Z,30.30
2019-03-29T16:41:15.856Z,30.40
2019-03-29T16:43:55.472Z,30.20
2019-03-29T16:46:34.429Z,30.30
2019-03-29T16:49:14.030Z,30.10
2019-03-29T16:51:55.077Z,30.10
2019-03-29T16:54:34.537Z,30.10
2019-03-29T16:57:13.513Z,30.10
2019-03-29T16:59:52.188Z,29.90
2019-03-29T17:02:31.334Z,30.00
2019-03-29T17:05:10.049Z,30.10
2019-03-29T17:07:48.644Z,30.10
2019-03-29T17:10:27.392Z,30.00
2019-03-29T17:13:06.323Z,30.20
2019-03-29T17:15:46.640Z,30.40
2019-03-29T17:18:29.504Z,30.20
2019-03-29T17:21:05.916Z,30.00
2019-03-29T17:23:47.965Z,29.90
2019-03-29T17:26:26.772Z,30.00
2019-03-29T17:29:06.197Z,30.10
2019-03-29T17:31:44.513Z,29.90
2019-03-29T17:34:23.564Z,29.80
2019-03-29T17:37:03.169Z,29.90
2019-03-29T17:39:43.841Z,30.10
2019-03-29T17:42:23.090Z,30.10
2019-03-29T17:45:03.304Z,30.00
2019-03-29T17:47:43.020Z,30.00
2019-03-29T17:50:25.235Z,30.20
2019-03-29T17:53:02.606Z,30.10
2019-03-29T17:55:41.853Z,29.90
2019-03-29T17:58:20.495Z,30.00
2019-03-29T18:00:59.669Z,29.90
2019-03-29T18:03:38.560Z,30.00
2019-03-29T18:06:18.241Z,30.10
2019-03-29T18:08:56.529Z,30.20
2019-03-29T18:11:35.010Z,30.20
2019-03-29T18:14:14.180Z,30.20
2019-03-29T18:16:54.391Z,30.10
2019-03-29T18:19:34.520Z,30.20
2019-03-29T18:22:12.980Z,30.20
2019-03-29T18:24:51.691Z,30.10
2019-03-29T18:27:31.661Z,30.00
2019-03-29T18:30:10.761Z,30.00
2019-03-29T18:32:55.145Z,30.00
2019-03-29T18:35:33.771Z,29.90
2019-03-29T18:38:12.947Z,29.70
2019-03-29T18:40:51.918Z,29.80
2019-03-29T18:43:31.446Z,30.00
2019-03-29T18:46:10.347Z,30.10
2019-03-29T18:48:50.692Z,29.80
2019-03-29T18:51:32.044Z,29.90
2019-03-29T18:54:10.859Z,30.00
2019-03-29T18:56:51.468Z,30.10
2019-03-29T18:59:30.528Z,29.90
2019-03-29T19:02:09.492Z,29.90
2019-03-29T19:04:48.456Z,29.90
2019-03-29T19:07:33.545Z,30.00
2019-03-29T19:10:14.266Z,29.90
2019-03-29T19:12:52.681Z,29.90
2019-03-29T19:15:31.563Z,29.90
2019-03-29T19:18:10.619Z,29.90
2019-03-29T19:20:49.929Z,29.90
2019-03-29T19:23:29.826Z,30.00
2019-03-29T19:26:08.627Z,30.00
2019-03-29T19:28:47.126Z,29.90
2019-03-29T19:31:26.026Z,29.80
2019-03-29T19:34:04.420Z,29.80
2019-03-29T19:36:43.103Z,29.90
2019-03-29T19:39:21.656Z,30.00
2019-03-29T19:42:01.227Z,29.80
2019-03-29T19:44:41.096Z,29.70
2019-03-29T19:47:19.821Z,29.80
2019-03-29T19:50:00.379Z,29.90
2019-03-29T19:52:40.717Z,29.80
2019-03-29T19:55:20.311Z,29.80
2019-03-29T19:57:59.027Z,29.80
2019-03-29T20:00:48.214Z,30.00
2019-03-29T20:03:27.086Z,30.00
2019-03-29T20:06:05.716Z,29.80
2019-03-29T20:08:44.245Z,29.70
2019-03-29T20:11:23.256Z,29.70
2019-03-29T20:14:02.693Z,29.90
2019-03-29T20:17:27.332Z,29.90
2019-03-29T20:19:58.230Z,29.90
2019-03-29T20:22:37.527Z,29.90
2019-03-29T20:25:16.654Z,29.80
2019-03-29T20:27:58.337Z,29.80
2019-03-29T20:30:36.367Z,29.90
2019-03-29T20:33:15.112Z,29.90
2019-03-29T20:35:54.314Z,29.60
2019-03-29T20:38:33.111Z,29.70
2019-03-29T20:41:12.072Z,29.80
2019-03-29T20:43:50.887Z,29.90
2019-03-29T20:46:30.050Z,29.70
2019-03-29T20:49:09.664Z,29.80
2019-03-29T20:51:48.428Z,30.00
2019-03-29T20:54:27.891Z,30.00
2019-03-29T20:57:06.770Z,29.80
2019-03-29T20:59:46.554Z,29.60
2019-03-29T21:02:25.335Z,29.80
2019-03-29T21:05:04.043Z,30.00
2019-03-29T21:07:43.955Z,30.00
2019-03-29T21:10:22.470Z,29.70
2019-03-29T21:13:00.750Z,29.80
2019-03-29T21:15:39.412Z,30.00
2019-03-29T21:18:19.677Z,30.20
2019-03-29T21:20:57.942Z,30.10
2019-03-29T21:23:36.749Z,30.10
2019-03-29T21:26:16.386Z,30.00
2019-03-29T21:28:55.470Z,29.90
2019-03-29T21:31:35.457Z,30.00
2019-03-29T21:34:14.425Z,30.10
2019-03-29T21:36:52.981Z,30.10
2019-03-29T21:39:32.644Z,30.30
2019-03-29T21:42:11.256Z,29.90
2019-03-29T21:44:50.424Z,30.10
2019-03-29T21:47:29.313Z,30.20
2019-03-29T21:50:10.149Z,30.20
2019-03-29T21:52:48.796Z,30.10
2019-03-29T21:55:28.335Z,29.80
2019-03-29T21:58:07.395Z,29.80
2019-03-29T22:00:46.913Z,29.90
2019-03-29T22:03:26.489Z,29.90
2019-03-29T22:06:04.931Z,29.90
2019-03-29T22:08:43.497Z,30.10
2019-03-29T22:11:23.815Z,30.30
2019-03-29T22:14:02.466Z,29.90
2019-03-29T22:16:41.541Z,29.90
2019-03-29T22:19:20.303Z,29.90
2019-03-29T22:22:00.060Z,29.90
2019-03-29T22:24:39.213Z,29.80
2019-03-29T22:27:18.133Z,29.60
2019-03-29T22:29:57.194Z,29.50
2019-03-29T22:32:36.600Z,29.50
2019-03-29T22:35:17.351Z,29.50
2019-03-29T22:37:56.349Z,29.60
2019-03-29T22:40:34.989Z,29.80
2019-03-29T22:43:14.275Z,29.70
2019-03-29T22:45:52.920Z,29.70
2019-03-29T22:48:31.830Z,29.60
2019-03-29T22:51:10.508Z,29.70
2019-03-29T22:53:49.758Z,29.90
2019-03-29T22:56:28.782Z,30.00
2019-03-29T22:59:07.180Z,30.00
2019-03-29T23:01:48.013Z,29.80
2019-03-29T23:04:27.278Z,29.80
2019-03-29T23:07:06.547Z,29.70
2019-03-29T23:09:45.495Z,29.80
2019-03-29T23:12:26.479Z,29.80
2019-03-29T23:15:05.857Z,29.70
2019-03-29T23:17:44.278Z,29.50
2019-03-29T23:20:23.260Z,29.50
2019-03-29T23:23:01.899Z,29.80
2019-03-29T23:25:41.002Z,30.00
2019-03-29T23:28:21.460Z,30.00
2019-03-29T23:31:00.272Z,30.00
2019-03-29T23:33:39.812Z,29.90
2019-03-29T23:36:19.293Z,29.90
2019-03-29T23:38:59.424Z,29.80
2019-03-29T23:41:38.305Z,29.80
2019-03-29T23:44:16.923Z,30.00
2019-03-29T23:46:56.351Z,30.20
2019-03-29T23:49:34.752Z,30.20
2019-03-29T23:52:13.182Z,30.10
2019-03-29T23:54:52.169Z,30.10
2019-03-29T23:57:32.293Z,30.10
